createdAt,value
2017-12-17T00:00:51.768Z,100455.38
2017-12-17T00:03:19.285Z,100455.34
2017-12-17T00:05:46.828Z,100462.06
2017-12-17T00:08:14.301Z,100453.27
2017-12-17T00:10:41.832Z,100465.02
2017-12-17T00:13:09.364Z,100461.28
2017-12-17T00:15:36.855Z,100458.30
2017-12-17T00:18:04.492Z,100459.56
2017-12-17T00:20:32.070Z,100465.83
2017-12-17T00:22:59.563Z,100473.02
2017-12-17T00:25:27.045Z,100465.49
2017-12-17T00:27:54.659Z,100466.70
2017-12-17T00:30:22.342Z,100473.80
2017-12-17T00:32:49.878Z,100474.70
2017-12-17T00:35:17.350Z,100475.58
2017-12-17T00:37:45.037Z,100482.95
2017-12-17T00:40:12.544Z,100480.66
2017-12-17T00:42:40.096Z,100482.05
2017-12-17T00:45:07.783Z,100490.55
2017-12-17T00:47:35.244Z,100488.44
2017-12-17T00:50:02.775Z,100498.05
2017-12-17T00:52:30.321Z,100498.37
2017-12-17T00:54:57.827Z,100501.74
2017-12-17T00:57:25.305Z,100503.84
2017-12-17T00:59:52.833Z,100510.27
2017-12-17T01:02:20.363Z,100514.55
2017-12-17T01:04:47.842Z,100516.62
2017-12-17T01:07:15.360Z,100511.98
2017-12-17T01:09:42.859Z,100512.87
2017-12-17T01:12:10.355Z,100509.95
2017-12-17T01:14:37.845Z,100511.21
2017-12-17T01:17:05.333Z,100521.39
2017-12-17T01:19:32.836Z,100522.65
2017-12-17T01:22:00.365Z,100527.70
2017-12-17T01:24:27.915Z,100529.81
2017-12-17T01:26:55.406Z,100530.20
2017-12-17T01:29:22.894Z,100536.13
2017-12-17T01:31:50.394Z,100532.80
2017-12-17T01:34:17.892Z,100538.27
2017-12-17T01:36:45.387Z,100537.39
2017-12-17T01:39:12.866Z,100536.97
2017-12-17T01:41:41.181Z,100540.80
2017-12-17T01:44:08.676Z,100545.01
2017-12-17T01:46:36.187Z,100543.00
2017-12-17T01:49:04.563Z,100537.92
2017-12-17T01:51:32.044Z,100543.39
2017-12-17T01:53:59.536Z,100540.06
2017-12-17T01:56:27.017Z,100540.02
2017-12-17T01:58:54.500Z,100544.20
2017-12-17T02:01:22.026Z,100545.88
2017-12-17T02:03:49.506Z,100555.64
2017-12-17T02:06:17.037Z,100554.34
2017-12-17T02:08:44.544Z,100557.33
2017-12-17T02:11:12.027Z,100552.20
2017-12-17T02:13:39.496Z,100552.17
2017-12-17T02:16:07.056Z,100559.40
2017-12-17T02:18:34.557Z,100561.08
2017-12-17T02:21:02.043Z,100560.56
2017-12-17T02:23:29.522Z,100556.34
2017-12-17T02:25:57.008Z,100559.69
2017-12-17T02:28:26.217Z,100558.48
2017-12-17T02:30:53.846Z,100562.28
2017-12-17T02:33:21.330Z,100560.98
2017-12-17T02:35:48.852Z,100555.92
2017-12-17T02:38:16.340Z,100559.82
2017-12-17T02:40:43.850Z,100557.22
2017-12-17T02:43:11.350Z,100564.38
2017-12-17T02:45:38.845Z,100572.00
2017-12-17T02:48:06.357Z,100578.70
2017-12-17T02:50:33.835Z,100581.23
2017-12-17T02:53:01.350Z,100590.11
2017-12-17T02:55:28.841Z,100590.42
2017-12-17T02:57:56.366Z,100586.98
2017-12-17T03:00:25.716Z,100587.37
2017-12-17T03:02:53.952Z,100585.30
2017-12-17T03:05:21.448Z,100582.77
2017-12-17T03:07:48.931Z,100588.25
2017-12-17T03:10:16.446Z,100592.84
2017-12-17T03:12:43.958Z,100591.16
2017-12-17T03:15:11.464Z,100592.95
2017-12-17T03:17:38.965Z,100588.67
2017-12-17T03:20:06.472Z,100594.67
2017-12-17T03:22:33.975Z,100594.59
2017-12-17T03:25:01.499Z,100595.94
2017-12-17T03:27:28.997Z,100595.52
2017-12-17T03:29:56.463Z,100599.70
2017-12-17T03:32:23.972Z,100603.91
2017-12-17T03:34:51.465Z,100606.43
2017-12-17T03:37:18.967Z,100611.45
2017-12-17T03:39:46.460Z,100604.70
2017-12-17T03:42:13.932Z,100604.33
2017-12-17T03:44:41.438Z,100607.66
2017-12-17T03:47:08.927Z,100606.05
2017-12-17T03:49:37.281Z,100603.94
2017-12-17T03:52:04.789Z,100607.27
2017-12-17T03:54:32.262Z,100615.70
2017-12-17T03:56:59.734Z,100620.68
2017-12-17T03:59:27.213Z,100626.23
2017-12-17T04:01:54.719Z,100626.19
2017-12-17T04:04:22.204Z,100632.55
2017-12-17T04:06:49.688Z,100630.40
2017-12-17T04:09:17.197Z,100638.86
2017-12-17T04:11:44.703Z,100640.58
2017-12-17T04:14:12.211Z,100646.94
2017-12-17T04:16:39.744Z,100648.05
2017-12-17T04:19:07.293Z,100649.02
2017-12-17T04:21:34.792Z,100651.84
2017-12-17T04:24:02.292Z,100653.11
2017-12-17T04:26:29.799Z,100659.50
2017-12-17T04:28:57.282Z,100658.63
2017-12-17T04:31:24.773Z,100661.61
2017-12-17T04:33:52.282Z,100660.69
2017-12-17T04:36:19.746Z,100664.17
2017-12-17T04:38:47.232Z,100661.11
2017-12-17T04:41:14.719Z,100673.73
2017-12-17T04:43:42.195Z,100659.00
2017-12-17T04:46:10.114Z,100667.84
2017-12-17T04:48:37.625Z,100672.48
2017-12-17T04:51:05.116Z,100672.52
2017-12-17T04:53:32.596Z,100680.06
2017-12-17T04:56:00.126Z,100687.22
2017-12-17T04:58:27.612Z,100680.52
2017-12-17T05:00:56.258Z,100683.00
2017-12-17T05:03:23.752Z,100681.78
2017-12-17T05:05:51.214Z,100686.03
2017-12-17T05:08:18.685Z,100695.72
2017-12-17T05:10:46.188Z,100696.95
2017-12-17T05:13:13.681Z,100691.85
2017-12-17T05:15:41.181Z,100700.27
2017-12-17T05:18:08.683Z,100701.62
2017-12-17T05:20:36.202Z,100702.92
2017-12-17T05:23:03.708Z,100705.33
2017-12-17T05:25:31.174Z,100704.56
2017-12-17T05:27:58.667Z,100713.41
2017-12-17T05:30:26.179Z,100718.89
2017-12-17T05:32:53.680Z,100717.50
2017-12-17T05:35:21.176Z,100721.75
2017-12-17T05:37:48.638Z,100724.28
2017-12-17T05:40:16.784Z,100729.00
2017-12-17T05:42:44.304Z,100729.30
2017-12-17T05:45:11.793Z,100733.59
2017-12-17T05:47:39.285Z,100736.53
2017-12-17T05:50:06.775Z,100736.62
2017-12-17T05:52:34.255Z,100741.63
2017-12-17T05:55:01.767Z,100739.82
2017-12-17T05:57:29.276Z,100744.08
2017-12-17T05:59:56.771Z,100746.19
2017-12-17T06:02:24.269Z,100743.99
2017-12-17T06:04:52.047Z,100748.70
2017-12-17T06:07:19.892Z,100753.30
2017-12-17T06:09:47.389Z,100750.05
2017-12-17T06:12:14.902Z,100754.65
2017-12-17T06:14:42.392Z,100751.36
2017-12-17T06:17:09.897Z,100761.52
2017-12-17T06:19:37.384Z,100764.29
2017-12-17T06:22:04.864Z,100770.53
2017-12-17T06:24:32.358Z,100785.17
2017-12-17T06:26:59.850Z,100785.55
2017-12-17T06:29:27.345Z,100792.20
2017-12-17T06:31:54.861Z,100791.26
2017-12-17T06:34:22.364Z,100799.92
2017-12-17T06:36:49.892Z,100797.83
2017-12-17T06:39:17.394Z,100804.92
2017-12-17T06:41:44.904Z,100809.66
2017-12-17T06:44:12.386Z,100817.27
2017-12-17T06:46:39.878Z,100819.72
2017-12-17T06:49:07.376Z,100828.70
2017-12-17T06:51:34.862Z,100825.83
2017-12-17T06:54:02.350Z,100829.20
2017-12-17T06:56:29.846Z,100836.97
2017-12-17T06:58:57.368Z,100841.27
2017-12-17T07:01:24.857Z,100848.11
2017-12-17T07:03:52.352Z,100858.27
2017-12-17T07:06:19.971Z,100852.42
2017-12-17T07:08:47.469Z,100863.13
2017-12-17T07:11:14.964Z,100862.94
2017-12-17T07:13:42.547Z,100866.77
2017-12-17T07:16:10.025Z,100867.56
2017-12-17T07:18:37.501Z,100878.05
2017-12-17T07:21:05.008Z,100878.47
2017-12-17T07:23:32.516Z,100884.21
2017-12-17T07:26:00.005Z,100885.63
2017-12-17T07:28:27.496Z,100885.11
2017-12-17T07:30:54.978Z,100891.42
2017-12-17T07:33:22.474Z,100887.91
2017-12-17T07:35:49.944Z,100891.86
2017-12-17T07:38:17.432Z,100900.63
2017-12-17T07:40:44.915Z,100909.62
2017-12-17T07:43:12.411Z,100915.52
2017-12-17T07:45:39.942Z,100918.57
2017-12-17T07:48:08.212Z,100922.63
2017-12-17T07:50:35.754Z,100929.57
2017-12-17T07:53:03.319Z,100928.91
2017-12-17T07:55:30.974Z,100935.73
2017-12-17T07:57:58.532Z,100937.05
2017-12-17T08:00:26.108Z,100937.84
2017-12-17T08:02:53.668Z,100940.47
2017-12-17T08:05:21.142Z,100945.94
2017-12-17T08:07:48.796Z,100957.41
2017-12-17T08:10:16.795Z,100956.79
2017-12-17T08:12:44.933Z,100957.27
2017-12-17T08:15:12.693Z,100957.64
2017-12-17T08:17:40.225Z,100961.05
2017-12-17T08:20:07.750Z,100972.58
2017-12-17T08:22:35.297Z,100982.11
2017-12-17T08:25:02.834Z,100974.79
2017-12-17T08:27:30.332Z,100984.56
2017-12-17T08:29:57.860Z,100986.73
2017-12-17T08:32:25.355Z,100986.05
2017-12-17T08:34:52.882Z,100989.77
2017-12-17T08:37:20.368Z,100995.63
2017-12-17T08:39:47.920Z,100993.09
2017-12-17T08:42:15.555Z,101002.94
2017-12-17T08:44:43.062Z,101003.10
2017-12-17T08:47:10.538Z,100999.42
2017-12-17T08:49:38.120Z,101003.11
2017-12-17T08:52:05.604Z,101008.79
2017-12-17T08:54:33.117Z,101010.37
2017-12-17T08:57:00.649Z,101018.38
2017-12-17T08:59:28.177Z,101019.58
2017-12-17T09:01:55.834Z,101025.00
2017-12-17T09:04:23.305Z,101035.22
2017-12-17T09:06:50.799Z,101026.19
2017-12-17T09:09:18.305Z,101031.81
2017-12-17T09:11:45.834Z,101029.47
2017-12-17T09:14:13.336Z,101033.70
2017-12-17T09:16:40.891Z,101034.34
2017-12-17T09:19:08.381Z,101046.16
2017-12-17T09:21:35.857Z,101050.91
2017-12-17T09:24:03.409Z,101052.97
2017-12-17T09:26:30.922Z,101051.97
2017-12-17T09:28:58.664Z,101055.70
2017-12-17T09:31:26.201Z,101066.44
2017-12-17T09:33:53.696Z,101067.48
2017-12-17T09:36:21.197Z,101071.76
2017-12-17T09:38:48.678Z,101067.71
2017-12-17T09:41:16.331Z,101072.59
2017-12-17T09:43:44.048Z,101070.02
2017-12-17T09:46:11.680Z,101074.97
2017-12-17T09:48:39.291Z,101075.77
2017-12-17T09:51:06.831Z,101078.39
2017-12-17T09:53:34.337Z,101078.81
2017-12-17T09:56:01.841Z,101078.72
2017-12-17T09:58:29.345Z,101086.40
2017-12-17T10:00:56.828Z,101084.45
2017-12-17T10:03:24.296Z,101090.23
2017-12-17T10:05:51.804Z,101095.30
2017-12-17T10:08:19.370Z,101090.55
2017-12-17T10:10:47.163Z,101104.30
2017-12-17T10:13:14.690Z,101105.61
2017-12-17T10:15:42.187Z,101105.52
2017-12-17T10:18:09.663Z,101116.57
2017-12-17T10:20:37.170Z,101116.27
2017-12-17T10:23:04.788Z,101124.09
2017-12-17T10:25:32.556Z,101120.65
2017-12-17T10:28:00.304Z,101121.28
2017-12-17T10:30:27.884Z,101126.34
2017-12-17T10:32:55.407Z,101125.31
2017-12-17T10:35:22.927Z,101129.63
2017-12-17T10:37:50.574Z,101130.38
2017-12-17T10:40:18.259Z,101127.48
2017-12-17T10:42:45.776Z,101129.62
2017-12-17T10:45:13.306Z,101127.67
2017-12-17T10:47:40.841Z,101126.57
2017-12-17T10:50:08.328Z,101136.81
2017-12-17T10:52:35.821Z,101131.52
2017-12-17T10:55:03.320Z,101138.39
2017-12-17T10:57:31.393Z,101137.84
2017-12-17T10:59:58.975Z,101142.41
2017-12-17T11:02:27.744Z,101136.16
2017-12-17T11:04:56.369Z,101133.02
2017-12-17T11:07:24.009Z,101142.47
2017-12-17T11:09:51.537Z,101143.00
2017-12-17T11:12:19.103Z,101142.75
2017-12-17T11:14:55.472Z,101146.95
2017-12-17T11:17:23.244Z,101146.41
2017-12-17T11:19:50.826Z,101147.01
2017-12-17T11:22:20.638Z,101149.13
2017-12-17T11:24:53.194Z,101153.70
2017-12-17T11:27:21.773Z,101147.16
2017-12-17T11:29:49.408Z,101151.20
2017-12-17T11:32:16.940Z,101149.28
2017-12-17T11:34:44.524Z,101152.94
2017-12-17T11:37:12.016Z,101147.77
2017-12-17T11:39:39.469Z,101149.63
2017-12-17T11:42:07.127Z,101160.62
2017-12-17T11:44:35.469Z,101153.95
2017-12-17T11:47:03.328Z,101161.48
2017-12-17T11:49:30.941Z,101162.94
2017-12-17T11:51:58.468Z,101168.54
2017-12-17T11:54:26.059Z,101166.26
2017-12-17T11:56:53.530Z,101166.66
2017-12-17T11:59:21.036Z,101162.33
2017-12-17T12:01:48.562Z,101168.91
2017-12-17T12:04:16.218Z,101172.20
2017-12-17T12:06:43.787Z,101171.41
2017-12-17T12:09:11.739Z,101165.28
2017-12-17T12:11:39.242Z,101165.30
2017-12-17T12:14:06.719Z,101169.23
2017-12-17T12:16:34.217Z,101170.81
2017-12-17T12:19:02.156Z,101166.17
2017-12-17T12:21:29.726Z,101166.41
2017-12-17T12:23:57.185Z,101169.84
2017-12-17T12:26:24.687Z,101173.69
2017-12-17T12:28:52.698Z,101172.55
2017-12-17T12:31:20.198Z,101179.84
2017-12-17T12:33:47.690Z,101173.90
2017-12-17T12:36:15.336Z,101174.48
2017-12-17T12:38:42.856Z,101177.08
2017-12-17T12:41:10.351Z,101176.89
2017-12-17T12:43:37.833Z,101169.31
2017-12-17T12:46:05.309Z,101179.17
2017-12-17T12:48:32.794Z,101180.99
2017-12-17T12:51:00.279Z,101177.55
2017-12-17T12:53:27.768Z,101180.25
2017-12-17T12:55:55.241Z,101179.94
2017-12-17T12:58:22.718Z,101188.58
2017-12-17T13:00:50.228Z,101188.92
2017-12-17T13:03:17.699Z,101188.20
2017-12-17T13:05:45.561Z,101183.65
2017-12-17T13:08:13.417Z,101189.09
2017-12-17T13:10:40.908Z,101183.98
2017-12-17T13:13:08.398Z,101186.63
2017-12-17T13:15:35.898Z,101195.54
2017-12-17T13:18:03.412Z,101197.28
2017-12-17T13:20:30.905Z,101197.22
2017-12-17T13:22:58.369Z,101193.59
2017-12-17T13:25:25.864Z,101196.02
2017-12-17T13:27:53.344Z,101195.28
2017-12-17T13:30:20.813Z,101200.84
2017-12-17T13:32:48.308Z,101204.55
2017-12-17T13:35:18.837Z,101208.70
2017-12-17T13:37:46.923Z,101209.45
2017-12-17T13:40:14.451Z,101208.78
2017-12-17T13:42:41.977Z,101208.59
2017-12-17T13:45:09.606Z,101216.47
2017-12-17T13:47:37.109Z,101208.53
2017-12-17T13:50:04.623Z,101213.11
2017-12-17T13:52:32.095Z,101218.64
2017-12-17T13:54:59.620Z,101212.08
2017-12-17T13:57:27.098Z,101219.42
2017-12-17T13:59:55.374Z,101217.38
2017-12-17T14:02:22.888Z,101216.59
2017-12-17T14:04:50.402Z,101223.87
2017-12-17T14:07:17.872Z,101224.97
2017-12-17T14:09:46.072Z,101224.91
2017-12-17T14:12:13.556Z,101229.60
2017-12-17T14:14:41.044Z,101236.51
2017-12-17T14:17:08.520Z,101235.06
2017-12-17T14:19:36.027Z,101232.53
2017-12-17T14:22:03.499Z,101227.08
2017-12-17T14:24:31.004Z,101225.55
2017-12-17T14:26:58.504Z,101228.77
2017-12-17T14:29:25.965Z,101228.80
2017-12-17T14:31:53.449Z,101230.14
2017-12-17T14:34:20.952Z,101225.02
2017-12-17T14:36:48.456Z,101225.34
2017-12-17T14:39:18.099Z,101228.03
2017-12-17T14:41:45.589Z,101229.60
2017-12-17T14:44:13.104Z,101235.96
2017-12-17T14:46:40.574Z,101241.50
2017-12-17T14:49:08.918Z,101240.05
2017-12-17T14:51:36.412Z,101248.42
2017-12-17T14:54:03.898Z,101247.76
2017-12-17T14:56:31.390Z,101251.13
2017-12-17T14:58:58.887Z,101258.59
2017-12-17T15:01:26.366Z,101262.02
2017-12-17T15:03:53.860Z,101272.61
2017-12-17T15:06:21.360Z,101265.69
2017-12-17T15:08:48.853Z,101271.23
2017-12-17T15:11:16.328Z,101273.74
2017-12-17T15:13:44.146Z,101275.06
2017-12-17T15:16:11.724Z,101286.38
2017-12-17T15:18:39.319Z,101285.05
2017-12-17T15:21:06.867Z,101283.33
2017-12-17T15:23:34.387Z,101291.17
2017-12-17T15:26:01.882Z,101289.86
2017-12-17T15:28:29.388Z,101292.02
2017-12-17T15:30:56.900Z,101294.06
2017-12-17T15:33:24.476Z,101298.27
2017-12-17T15:35:51.938Z,101302.43
2017-12-17T15:38:19.479Z,101308.37
2017-12-17T15:40:46.975Z,101309.81
2017-12-17T15:43:14.443Z,101309.16
2017-12-17T15:45:41.932Z,101313.84
2017-12-17T15:48:09.427Z,101313.08
2017-12-17T15:50:36.929Z,101316.03
2017-12-17T15:53:04.427Z,101323.10
2017-12-17T15:55:31.934Z,101321.59
2017-12-17T15:57:59.462Z,101325.98
2017-12-17T16:00:26.987Z,101329.41
2017-12-17T16:02:54.481Z,101337.84
2017-12-17T16:05:21.953Z,101338.77
2017-12-17T16:07:49.441Z,101340.37
2017-12-17T16:10:16.933Z,101334.91
2017-12-17T16:12:44.437Z,101348.09
2017-12-17T16:15:11.957Z,101342.69
2017-12-17T16:17:39.442Z,101348.00
2017-12-17T16:20:06.914Z,101344.53
2017-12-17T16:22:34.430Z,101345.19
2017-12-17T16:25:01.916Z,101351.88
2017-12-17T16:27:29.418Z,101355.75
2017-12-17T16:29:56.892Z,101353.14
2017-12-17T16:32:24.397Z,101356.03
2017-12-17T16:34:51.880Z,101356.04
2017-12-17T16:37:19.363Z,101365.16
2017-12-17T16:39:46.833Z,101360.48
2017-12-17T16:42:14.317Z,101368.59
2017-12-17T16:44:41.811Z,101358.22
2017-12-17T16:47:09.315Z,101359.95
2017-12-17T16:49:36.797Z,101364.61
2017-12-17T16:52:04.293Z,101364.88
2017-12-17T16:54:31.784Z,101367.66
2017-12-17T16:56:59.363Z,101371.80
2017-12-17T16:59:26.866Z,101370.28
2017-12-17T17:01:54.343Z,101367.25
2017-12-17T17:04:21.838Z,101372.80
2017-12-17T17:06:49.330Z,101377.92
2017-12-17T17:09:16.812Z,101377.91
2017-12-17T17:11:44.282Z,101376.67
2017-12-17T17:14:11.785Z,101380.73
2017-12-17T17:16:39.286Z,101375.27
2017-12-17T17:19:06.798Z,101372.86
2017-12-17T17:21:34.292Z,101374.81
2017-12-17T17:24:01.818Z,101370.63
2017-12-17T17:26:29.290Z,101370.56
2017-12-17T17:28:56.786Z,101368.56
2017-12-17T17:31:24.279Z,101373.63
2017-12-17T17:33:52.847Z,101374.06
2017-12-17T17:36:20.350Z,101372.95
2017-12-17T17:38:47.821Z,101362.54
2017-12-17T17:41:15.304Z,101367.60
2017-12-17T17:43:42.844Z,101365.02
2017-12-17T17:46:10.302Z,101368.92
2017-12-17T17:48:37.777Z,101363.12
2017-12-17T17:51:05.257Z,101363.97
2017-12-17T17:53:32.776Z,101361.08
2017-12-17T17:56:00.328Z,101362.63
2017-12-17T17:58:27.804Z,101362.96
2017-12-17T18:00:55.290Z,101362.63
2017-12-17T18:03:23.019Z,101360.44
2017-12-17T18:05:50.528Z,101361.64
2017-12-17T18:08:18.030Z,101358.83
2017-12-17T18:10:45.501Z,101355.95
2017-12-17T18:13:12.978Z,101350.78
2017-12-17T18:15:40.490Z,101345.69
2017-12-17T18:18:07.982Z,101339.71
2017-12-17T18:20:35.480Z,101344.82
2017-12-17T18:23:03.030Z,101344.55
2017-12-17T18:25:30.483Z,101342.59
2017-12-17T18:27:57.993Z,101341.06
2017-12-17T18:30:25.463Z,101340.77
2017-12-17T18:32:52.960Z,101343.73
2017-12-17T18:35:20.472Z,101344.27
2017-12-17T18:37:47.960Z,101342.56
2017-12-17T18:40:15.455Z,101345.26
2017-12-17T18:42:42.986Z,101342.70
2017-12-17T18:45:10.493Z,101345.92
2017-12-17T18:47:38.017Z,101348.09
2017-12-17T18:50:05.819Z,101356.63
2017-12-17T18:52:33.325Z,101363.33
2017-12-17T18:55:00.841Z,101362.61
2017-12-17T18:57:28.341Z,101363.63
2017-12-17T18:59:55.842Z,101360.22
2017-12-17T19:02:23.358Z,101358.27
2017-12-17T19:04:50.860Z,101355.31
2017-12-17T19:07:18.365Z,101359.72
2017-12-17T19:09:45.845Z,101358.95
2017-12-17T19:12:13.341Z,101359.66
2017-12-17T19:14:40.880Z,101357.52
2017-12-17T19:17:08.385Z,101356.20
2017-12-17T19:19:35.886Z,101357.78
2017-12-17T19:22:03.430Z,101360.72
2017-12-17T19:24:30.978Z,101361.56
2017-12-17T19:26:58.508Z,101371.83
2017-12-17T19:29:26.015Z,101373.68
2017-12-17T19:31:53.503Z,101372.66
2017-12-17T19:34:21.592Z,101376.30
2017-12-17T19:36:50.284Z,101371.06
2017-12-17T19:39:17.808Z,101372.75
2017-12-17T19:41:45.310Z,101366.72
2017-12-17T19:44:12.866Z,101367.12
2017-12-17T19:46:40.425Z,101366.64
2017-12-17T19:49:07.972Z,101369.09
2017-12-17T19:51:35.475Z,101374.28
2017-12-17T19:54:02.972Z,101377.49
2017-12-17T19:56:30.468Z,101374.05
2017-12-17T19:58:57.954Z,101378.75
2017-12-17T20:01:25.446Z,101378.26
2017-12-17T20:03:52.939Z,101378.65
2017-12-17T20:06:20.561Z,101371.61
2017-12-17T20:08:48.083Z,101369.34
2017-12-17T20:11:15.576Z,101370.42
2017-12-17T20:13:43.070Z,101368.23
2017-12-17T20:16:11.138Z,101360.78
2017-12-17T20:18:38.659Z,101371.69
2017-12-17T20:21:06.198Z,101366.41
2017-12-17T20:23:33.845Z,101365.97
2017-12-17T20:26:01.553Z,101369.34
2017-12-17T20:28:29.206Z,101363.61
2017-12-17T20:30:56.705Z,101364.48
2017-12-17T20:33:24.229Z,101366.89
2017-12-17T20:35:51.776Z,101363.46
2017-12-17T20:38:19.272Z,101362.61
2017-12-17T20:40:46.762Z,101367.33
2017-12-17T20:43:14.372Z,101362.22
2017-12-17T20:45:42.124Z,101363.20
2017-12-17T20:48:09.677Z,101364.91
2017-12-17T20:50:37.181Z,101365.95
2017-12-17T20:53:04.733Z,101366.89
2017-12-17T20:55:32.220Z,101366.28
2017-12-17T20:57:59.737Z,101359.23
2017-12-17T21:00:27.322Z,101364.77
2017-12-17T21:02:54.794Z,101357.03
2017-12-17T21:05:22.299Z,101359.13
2017-12-17T21:07:50.418Z,101363.75
2017-12-17T21:10:17.972Z,101358.70
2017-12-17T21:12:45.476Z,101360.50
2017-12-17T21:15:12.960Z,101368.23
2017-12-17T21:17:40.434Z,101372.98
2017-12-17T21:20:07.908Z,101369.97
2017-12-17T21:22:35.570Z,101371.48
2017-12-17T21:25:03.109Z,101367.38
2017-12-17T21:27:30.620Z,101370.34
2017-12-17T21:29:58.117Z,101372.09
2017-12-17T21:32:39.917Z,101366.95
2017-12-17T21:37:59.674Z,101358.13
2017-12-17T21:40:27.176Z,101360.67
2017-12-17T21:42:54.693Z,101357.44
2017-12-17T21:45:22.225Z,101362.63
2017-12-17T21:47:49.887Z,101368.36
2017-12-17T21:50:17.411Z,101370.62
2017-12-17T21:52:45.074Z,101365.58
2017-12-17T21:55:12.551Z,101371.17
2017-12-17T21:57:40.033Z,101364.80
2017-12-17T22:00:07.590Z,101368.21
2017-12-17T22:02:35.827Z,101366.56
2017-12-17T22:05:03.331Z,101372.69
2017-12-17T22:07:30.903Z,101375.03
2017-12-17T22:09:59.039Z,101369.92
2017-12-17T22:12:27.475Z,101366.05
2017-12-17T22:14:54.979Z,101367.46
2017-12-17T22:17:22.491Z,101365.01
2017-12-17T22:19:50.063Z,101364.88
2017-12-17T22:22:17.560Z,101362.19
2017-12-17T22:24:45.074Z,101356.72
2017-12-17T22:27:12.603Z,101353.84
2017-12-17T22:32:33.007Z,101349.75
2017-12-17T22:35:00.592Z,101354.79
2017-12-17T22:37:28.164Z,101349.03
2017-12-17T22:39:55.715Z,101350.39
2017-12-17T22:42:23.242Z,101343.72
2017-12-17T22:44:50.816Z,101339.98
2017-12-17T22:47:18.678Z,101338.35
2017-12-17T22:49:46.538Z,101330.79
2017-12-17T22:52:14.465Z,101333.15
2017-12-17T22:54:42.601Z,101325.81
2017-12-17T22:57:10.097Z,101320.70
2017-12-17T22:59:37.657Z,101312.16
2017-12-17T23:02:05.186Z,101305.78
2017-12-17T23:04:33.270Z,101305.30
2017-12-17T23:07:02.559Z,101301.50
2017-12-17T23:09:30.067Z,101302.25
2017-12-17T23:11:57.553Z,101300.08
2017-12-17T23:14:25.162Z,101291.69
2017-12-17T23:16:52.680Z,101294.34
2017-12-17T23:19:20.199Z,101293.17
2017-12-17T23:21:47.700Z,101295.70
2017-12-17T23:24:15.187Z,101285.19
2017-12-17T23:26:42.673Z,101284.64
2017-12-17T23:29:10.205Z,101283.43
2017-12-17T23:31:37.715Z,101275.30
2017-12-17T23:34:05.207Z,101273.55
2017-12-17T23:36:32.706Z,101266.01
2017-12-17T23:39:00.230Z,101263.19
2017-12-17T23:41:27.774Z,101258.17
2017-12-17T23:43:55.262Z,101263.61
2017-12-17T23:46:22.792Z,101259.83
2017-12-17T23:48:50.276Z,101255.22
2017-12-17T23:51:17.816Z,101254.44
2017-12-17T23:53:45.313Z,101249.47
2017-12-17T23:56:12.845Z,101240.23
2017-12-17T23:58:41.340Z,101244.86
